Time;durP1;ratioP1;P1;durP2;ratioP2;P2;SDS_P1;SDS_P2;PMS_P1;PMS_P2;Temp;Humidity;BMP_temperature;BMP_pressure;BME280_temperature;BME280_humidity;BME280_pressure;Samples;Min_cycle;Max_cycle;Signal;HPM_P1;HPM_P2
2021/10/04 00:00:09;;;;;;;485.23;462.60;;;11.20;99.90;;;;;;4405392;32;20203;-68
2021/10/04 00:02:42;;;;;;;487.70;464.70;;;11.20;99.90;;;;;;4405200;32;20178;-70
2021/10/04 00:05:12;;;;;;;477.93;455.63;;;11.20;99.90;;;;;;4405677;32;20189;-67
2021/10/04 00:07:44;;;;;;;480.53;458.17;;;11.20;99.90;;;;;;4405180;32;20658;-68
2021/10/04 00:10:14;;;;;;;465.83;444.30;;;11.30;99.90;;;;;;4405398;32;20136;-68
2021/10/04 00:12:42;;;;;;;478.97;456.57;;;11.30;99.90;;;;;;4405097;32;20140;-69
2021/10/04 00:15:10;;;;;;;488.47;466.07;;;11.20;99.90;;;;;;4390511;32;20140;-68
2021/10/04 00:17:39;;;;;;;477.20;455.43;;;11.20;99.90;;;;;;4390256;32;20156;-68
2021/10/04 00:20:09;;;;;;;484.30;461.63;;;11.20;99.90;;;;;;4405557;32;20570;-68
2021/10/04 00:22:36;;;;;;;470.97;449.27;;;11.20;99.90;;;;;;4405365;32;20174;-68
2021/10/04 00:25:07;;;;;;;472.60;450.30;;;11.20;99.90;;;;;;4405068;32;20174;-68
2021/10/04 00:27:34;;;;;;;483.33;460.67;;;11.30;99.90;;;;;;4406000;32;20148;-69
2021/10/04 00:30:05;;;;;;;488.00;465.23;;;11.30;99.90;;;;;;4407383;32;20164;-68
2021/10/04 00:32:34;;;;;;;474.40;452.80;;;11.20;99.90;;;;;;4408509;32;20153;-67
2021/10/04 00:35:11;;;;;;;487.90;465.40;;;11.20;99.90;;;;;;4407564;32;20170;-68
2021/10/04 00:37:43;;;;;;;469.93;448.43;;;11.20;99.90;;;;;;4393696;32;20140;-70
2021/10/04 00:40:13;;;;;;;463.07;441.67;;;11.20;99.90;;;;;;4407531;32;20167;-68
2021/10/04 00:42:42;;;;;;;443.37;423.13;;;11.20;99.90;;;;;;4408476;32;20144;-70
2021/10/04 00:45:15;;;;;;;492.87;470.07;;;11.10;99.90;;;;;;4407822;32;20209;-68
2021/10/04 00:47:42;;;;;;;481.83;459.67;;;11.10;99.90;;;;;;4408479;32;20147;-67
2021/10/04 00:50:15;;;;;;;487.00;464.37;;;11.20;99.90;;;;;;4407685;32;20201;-70
2021/10/04 00:52:42;;;;;;;473.80;451.77;;;11.20;99.90;;;;;;4409496;32;20155;-69
2021/10/04 00:55:11;;;;;;;476.47;454.60;;;11.20;99.90;;;;;;4409537;32;20712;-69
2021/10/04 00:57:42;;;;;;;479.87;458.00;;;11.20;99.90;;;;;;4409238;32;20183;-68
2021/10/04 01:00:13;;;;;;;475.10;453.50;;;11.20;99.90;;;;;;4407978;32;20191;-68
2021/10/04 01:02:40;;;;;;;466.63;445.13;;;11.20;99.90;;;;;;4409718;32;20147;-70
2021/10/04 01:05:09;;;;;;;462.17;440.80;;;11.20;99.90;;;;;;4407718;32;20147;-70
2021/10/04 01:07:38;;;;;;;471.20;449.80;;;11.20;99.90;;;;;;4407458;32;20175;-69
2021/10/04 01:10:09;;;;;;;470.27;448.60;;;11.30;99.90;;;;;;4408773;32;20204;-67
2021/10/04 01:12:37;;;;;;;444.63;424.53;;;11.20;99.90;;;;;;4407272;32;20168;-69
2021/10/04 01:15:05;;;;;;;449.73;429.90;;;11.20;99.90;;;;;;4409315;32;20139;-70
2021/10/04 01:17:32;;;;;;;463.40;442.03;;;11.10;99.90;;;;;;4406834;32;20487;-68
2021/10/04 01:20:11;;;;;;;447.53;427.17;;;11.10;99.90;;;;;;4407668;32;20210;-68
2021/10/04 01:22:39;;;;;;;438.13;418.43;;;11.20;99.90;;;;;;4407143;32;20174;-68
2021/10/04 01:25:06;;;;;;;448.37;427.83;;;11.10;99.90;;;;;;4407725;32;20147;-68
2021/10/04 01:27:33;;;;;;;455.50;434.77;;;11.10;99.90;;;;;;4407133;32;20584;-68
2021/10/04 01:30:00;;;;;;;452.80;432.10;;;11.10;99.90;;;;;;4409340;32;20178;-69
2021/10/04 01:32:30;;;;;;;454.97;434.20;;;11.10;99.90;;;;;;4406868;32;20143;-68
2021/10/04 01:34:59;;;;;;;458.13;437.23;;;11.10;99.90;;;;;;4409420;32;20162;-70
2021/10/04 01:37:27;;;;;;;447.50;427.00;;;11.10;99.90;;;;;;4406654;32;20186;-68
2021/10/04 01:39:54;;;;;;;463.23;441.27;;;11.10;99.90;;;;;;4407751;32;20453;-70
2021/10/04 01:42:24;;;;;;;462.97;441.90;;;11.20;99.90;;;;;;4407817;32;20156;-70
2021/10/04 01:44:52;;;;;;;457.37;435.93;;;11.20;99.90;;;;;;4407785;32;20184;-68
2021/10/04 01:47:19;;;;;;;447.17;426.70;;;11.10;99.90;;;;;;4406641;32;20171;-68
2021/10/04 01:49:47;;;;;;;451.37;430.73;;;11.20;99.90;;;;;;4407281;32;20148;-68
2021/10/04 01:52:15;;;;;;;464.03;442.23;;;11.10;99.90;;;;;;4408532;32;20136;-69
2021/10/04 01:54:44;;;;;;;461.87;440.63;;;11.20;99.90;;;;;;4406847;32;20170;-68
2021/10/04 01:57:11;;;;;;;440.83;420.57;;;11.10;99.90;;;;;;4407275;32;20156;-69
2021/10/04 01:59:40;;;;;;;465.87;444.43;;;11.00;99.90;;;;;;4406877;32;20174;-68
2021/10/04 02:02:07;;;;;;;454.13;432.93;;;11.10;99.90;;;;;;4406312;32;20148;-68
2021/10/04 02:04:34;;;;;;;456.57;435.97;;;11.10;99.90;;;;;;4406336;32;20144;-71
2021/10/04 02:07:02;;;;;;;452.60;431.97;;;11.00;99.90;;;;;;4408361;32;20155;-72
2021/10/04 02:09:38;;;;;;;453.40;432.37;;;11.00;99.90;;;;;;4407495;32;20182;-70
2021/10/04 02:12:11;;;;;;;445.10;425.37;;;11.00;99.90;;;;;;4408797;32;20142;-67
2021/10/04 02:14:40;;;;;;;463.80;442.73;;;10.90;99.90;;;;;;4391918;32;20142;-68
2021/10/04 02:17:10;;;;;;;459.77;438.90;;;10.90;99.90;;;;;;4391946;32;20223;-68
2021/10/04 02:19:37;;;;;;;448.30;428.20;;;10.90;99.90;;;;;;4406379;32;20152;-68
2021/10/04 02:22:04;;;;;;;456.10;435.80;;;10.80;99.90;;;;;;4407362;32;20144;-69
2021/10/04 02:24:33;;;;;;;463.30;441.50;;;10.80;99.90;;;;;;4407275;32;20167;-67
2021/10/04 02:27:00;;;;;;;476.37;454.13;;;10.80;99.90;;;;;;4407081;32;20206;-67
2021/10/04 02:29:30;;;;;;;459.63;438.03;;;10.80;99.90;;;;;;4406529;32;20168;-67
2021/10/04 02:31:57;;;;;;;467.63;445.13;;;10.80;99.90;;;;;;4407359;32;20132;-70
2021/10/04 02:34:26;;;;;;;468.07;446.63;;;10.80;99.90;;;;;;4400917;32;20223;-67
2021/10/04 02:36:54;;;;;;;445.57;425.07;;;10.80;99.90;;;;;;4401334;32;20187;-69
2021/10/04 02:39:21;;;;;;;463.97;442.43;;;10.80;99.90;;;;;;4396980;32;20159;-69
2021/10/04 02:41:53;;;;;;;432.07;412.70;;;10.80;99.90;;;;;;4397012;32;20225;-67
2021/10/04 02:44:20;;;;;;;462.83;441.00;;;10.80;99.90;;;;;;4394534;32;20167;-67
2021/10/04 02:46:52;;;;;;;459.97;439.20;;;10.80;99.90;;;;;;4395105;32;20151;-69
2021/10/04 02:49:19;;;;;;;473.97;452.30;;;10.80;99.90;;;;;;4396999;32;20173;-67
2021/10/04 02:51:46;;;;;;;462.63;441.30;;;10.70;99.90;;;;;;4399188;32;20162;-67
2021/10/04 02:54:13;;;;;;;457.30;436.33;;;10.80;99.90;;;;;;4402018;32;20600;-68
2021/10/04 02:56:43;;;;;;;473.00;451.70;;;10.80;99.90;;;;;;4408030;32;20167;-66
2021/10/04 02:59:13;;;;;;;447.47;427.40;;;10.80;99.90;;;;;;4405418;32;20148;-68
2021/10/04 03:01:40;;;;;;;468.23;446.50;;;10.80;99.90;;;;;;4405490;32;20216;-71
2021/10/04 03:04:08;;;;;;;466.53;445.63;;;10.80;99.90;;;;;;4405656;32;20185;-67
2021/10/04 03:06:35;;;;;;;442.13;421.93;;;10.90;99.90;;;;;;4407677;32;20176;-68
2021/10/04 03:09:02;;;;;;;441.53;421.90;;;10.80;99.90;;;;;;4406257;32;20505;-68
2021/10/04 03:11:29;;;;;;;461.07;440.50;;;10.90;99.90;;;;;;4405735;32;20178;-70
2021/10/04 03:13:56;;;;;;;462.23;441.07;;;10.90;99.90;;;;;;4406239;32;20146;-70
2021/10/04 03:16:23;;;;;;;471.53;449.60;;;10.80;99.90;;;;;;4405904;32;20148;-69
2021/10/04 03:18:49;;;;;;;464.00;442.93;;;10.90;99.90;;;;;;4407522;32;20167;-68
2021/10/04 03:21:18;;;;;;;449.17;428.50;;;10.80;99.90;;;;;;4406895;32;20166;-70
2021/10/04 03:23:51;;;;;;;474.50;452.70;;;10.80;99.90;;;;;;4398742;32;20158;-69
2021/10/04 03:26:19;;;;;;;456.50;435.63;;;10.80;99.90;;;;;;4394431;32;20237;-69
2021/10/04 03:28:48;;;;;;;455.93;435.27;;;10.80;99.90;;;;;;4397130;32;20191;-67
2021/10/04 03:31:15;;;;;;;471.83;449.93;;;10.80;99.90;;;;;;4394420;32;20222;-67
2021/10/04 03:33:46;;;;;;;448.37;428.50;;;10.80;99.90;;;;;;4396716;32;20240;-66
2021/10/04 03:36:14;;;;;;;464.83;443.93;;;10.80;99.90;;;;;;4398621;32;20154;-68
2021/10/04 03:38:56;;;;;;;442.30;422.23;;;10.70;99.90;;;;;;4392725;32;20224;-66
2021/10/04 03:41:25;;;;;;;447.43;427.23;;;10.80;99.90;;;;;;4395085;32;20640;-67
2021/10/04 03:43:55;;;;;;;447.47;427.63;;;10.80;99.90;;;;;;4405616;32;20177;-69
2021/10/04 03:46:22;;;;;;;469.33;447.50;;;10.70;99.90;;;;;;4405326;32;20213;-67
2021/10/04 03:48:49;;;;;;;443.20;422.63;;;10.70;99.90;;;;;;4406273;32;20169;-68
2021/10/04 03:51:16;;;;;;;435.33;415.53;;;10.70;99.90;;;;;;4407102;32;20158;-66
2021/10/04 03:53:47;;;;;;;424.10;405.27;;;10.70;99.90;;;;;;4405845;32;20158;-67
2021/10/04 03:56:15;;;;;;;440.40;420.60;;;10.70;99.90;;;;;;4405115;32;20241;-67
2021/10/04 03:58:43;;;;;;;433.10;413.57;;;10.70;99.90;;;;;;4405497;32;20150;-67
2021/10/04 04:01:10;;;;;;;432.83;413.33;;;10.70;99.90;;;;;;4405345;32;20245;-68
2021/10/04 04:03:37;;;;;;;446.87;426.40;;;10.60;99.90;;;;;;4406485;32;20155;-69
2021/10/04 04:06:06;;;;;;;455.57;434.57;;;10.60;99.90;;;;;;4405066;32;20155;-67
2021/10/04 04:08:34;;;;;;;466.30;444.97;;;10.60;99.90;;;;;;4406384;32;20162;-71
2021/10/04 04:11:03;;;;;;;455.13;433.90;;;10.50;99.90;;;;;;4405022;32;20445;-68
2021/10/04 04:13:30;;;;;;;480.10;458.13;;;10.60;99.90;;;;;;4404948;32;20173;-66
2021/10/04 04:15:57;;;;;;;461.27;440.37;;;10.60;99.90;;;;;;4405338;32;20159;-67
2021/10/04 04:18:23;;;;;;;467.17;445.17;;;10.60;99.90;;;;;;4405588;32;20162;-66
2021/10/04 04:20:52;;;;;;;476.07;454.30;;;10.60;99.90;;;;;;4405689;32;20151;-69
2021/10/04 04:23:19;;;;;;;454.67;433.60;;;10.50;99.90;;;;;;4405453;32;20185;-66
2021/10/04 04:25:46;;;;;;;474.63;452.90;;;10.60;99.90;;;;;;4405450;32;20616;-68
2021/10/04 04:28:14;;;;;;;459.17;437.87;;;10.50;99.90;;;;;;4405335;32;20556;-66
2021/10/04 04:30:41;;;;;;;445.13;424.70;;;10.50;99.90;;;;;;4404867;32;20152;-66
2021/10/04 04:33:08;;;;;;;467.27;445.57;;;10.50;99.90;;;;;;4405421;32;20204;-67
2021/10/04 04:35:35;;;;;;;469.17;447.23;;;10.50;99.90;;;;;;4404885;32;20164;-67
2021/10/04 04:38:02;;;;;;;467.20;445.33;;;10.50;99.90;;;;;;4405395;32;20186;-66
2021/10/04 04:40:29;;;;;;;467.97;446.37;;;10.40;99.90;;;;;;4404963;32;20160;-68
2021/10/04 04:42:59;;;;;;;461.33;439.97;;;10.40;99.90;;;;;;4406369;32;20144;-66
2021/10/04 04:45:28;;;;;;;454.37;433.83;;;10.40;99.90;;;;;;4404789;32;20579;-66
2021/10/04 04:47:55;;;;;;;445.70;425.27;;;10.40;99.90;;;;;;4405506;32;20627;-68
2021/10/04 04:50:25;;;;;;;466.10;444.70;;;10.40;99.90;;;;;;4405432;32;20616;-68
2021/10/04 04:52:52;;;;;;;441.87;422.00;;;10.40;99.90;;;;;;4405751;32;20598;-67
2021/10/04 04:55:19;;;;;;;451.50;430.83;;;10.40;99.90;;;;;;4405177;32;20155;-67
2021/10/04 04:57:52;;;;;;;459.00;437.60;;;10.40;99.90;;;;;;4405052;32;20612;-66
2021/10/04 05:00:20;;;;;;;453.90;433.33;;;10.40;99.90;;;;;;4405048;32;20596;-66
2021/10/04 05:02:50;;;;;;;455.73;434.97;;;10.40;99.90;;;;;;4405277;32;20145;-67
2021/10/04 05:05:18;;;;;;;449.17;428.70;;;10.40;99.90;;;;;;4404575;32;20565;-68
2021/10/04 05:07:46;;;;;;;453.87;433.47;;;10.40;99.90;;;;;;4406936;32;20580;-66
2021/10/04 05:10:12;;;;;;;465.83;444.60;;;10.40;99.90;;;;;;4404497;32;20266;-66
2021/10/04 05:12:43;;;;;;;463.10;441.90;;;10.40;99.90;;;;;;4405152;32;20167;-66
2021/10/04 05:15:19;;;;;;;474.83;452.73;;;10.40;99.90;;;;;;4404340;32;20461;-69
2021/10/04 05:17:50;;;;;;;458.33;438.07;;;10.40;99.90;;;;;;4406273;32;20170;-66
2021/10/04 05:20:16;;;;;;;448.77;428.27;;;10.50;99.90;;;;;;4406967;32;20581;-66
2021/10/04 05:22:43;;;;;;;462.93;441.90;;;10.50;99.90;;;;;;4406439;32;20181;-66
2021/10/04 05:25:11;;;;;;;445.13;424.70;;;10.50;99.90;;;;;;4407946;32;20173;-66
2021/10/04 05:27:39;;;;;;;450.17;429.73;;;10.50;99.90;;;;;;4407416;32;20203;-67
2021/10/04 05:30:07;;;;;;;449.83;428.93;;;10.50;99.90;;;;;;4405604;32;20274;-68
2021/10/04 05:32:43;;;;;;;468.87;447.50;;;10.50;99.90;;;;;;4404450;32;20150;-69
2021/10/04 05:35:14;;;;;;;457.17;436.20;;;10.50;99.90;;;;;;4405178;32;20248;-66
2021/10/04 05:37:42;;;;;;;462.30;441.20;;;10.60;99.90;;;;;;4402711;32;20144;-66
2021/10/04 05:40:10;;;;;;;440.30;420.13;;;10.50;99.90;;;;;;4406673;32;20561;-66
2021/10/04 05:42:40;;;;;;;434.50;415.20;;;10.50;99.90;;;;;;4405918;32;20173;-66
2021/10/04 05:45:09;;;;;;;447.40;426.90;;;10.50;99.90;;;;;;4406666;32;20148;-67
2021/10/04 05:47:39;;;;;;;451.20;430.87;;;10.60;99.90;;;;;;4406415;32;20219;-67
2021/10/04 05:50:26;;;;;;;445.77;425.37;;;10.50;99.90;;;;;;4406500;32;20182;-66
2021/10/04 05:52:54;;;;;;;424.87;405.40;;;10.60;99.90;;;;;;4405351;32;20258;-66
2021/10/04 05:55:26;;;;;;;447.00;426.87;;;10.60;99.90;;;;;;4405792;32;20142;-66
2021/10/04 05:57:54;;;;;;;428.50;409.47;;;10.60;99.90;;;;;;4406263;32;20156;-66
2021/10/04 06:00:29;;;;;;;435.47;416.13;;;10.60;99.90;;;;;;4403511;32;20151;-66
2021/10/04 06:03:04;;;;;;;422.23;403.37;;;10.70;99.90;;;;;;4407129;32;20159;-66
2021/10/04 06:05:32;;;;;;;439.97;420.13;;;10.70;99.90;;;;;;4406150;32;20155;-68
2021/10/04 06:08:11;;;;;;;454.20;433.63;;;10.70;99.90;;;;;;4406893;32;20483;-66
2021/10/04 06:10:42;;;;;;;452.23;431.70;;;10.70;99.90;;;;;;4405865;32;20205;-67
2021/10/04 06:13:12;;;;;;;433.73;414.43;;;10.80;99.90;;;;;;4405374;32;20163;-67
2021/10/04 06:15:43;;;;;;;411.83;393.13;;;10.80;99.90;;;;;;4405746;32;20606;-67
2021/10/04 06:18:13;;;;;;;436.43;416.70;;;10.70;99.90;;;;;;4406108;32;20610;-66
2021/10/04 06:20:40;;;;;;;433.70;414.30;;;10.80;99.90;;;;;;4405753;32;20148;-67
2021/10/04 06:23:11;;;;;;;436.10;416.13;;;10.80;99.90;;;;;;4406208;32;20178;-67
2021/10/04 06:25:38;;;;;;;448.07;427.57;;;10.80;99.90;;;;;;4405128;32;20203;-66
2021/10/04 06:28:06;;;;;;;434.13;414.53;;;10.80;99.90;;;;;;4405067;32;20222;-67
2021/10/04 06:30:33;;;;;;;425.93;407.27;;;10.90;99.90;;;;;;4406849;32;20215;-68
2021/10/04 06:33:00;;;;;;;428.00;408.67;;;10.90;99.90;;;;;;4406780;32;20564;-67
2021/10/04 06:35:27;;;;;;;403.03;384.90;;;10.90;99.90;;;;;;4407219;32;20167;-67
2021/10/04 06:37:54;;;;;;;410.33;391.93;;;10.90;99.90;;;;;;4406434;32;20526;-66
2021/10/04 06:40:22;;;;;;;406.53;388.50;;;10.80;99.90;;;;;;4404425;32;20162;-67
2021/10/04 06:42:49;;;;;;;431.30;411.97;;;10.80;99.90;;;;;;4407713;32;20250;-66
2021/10/04 06:45:16;;;;;;;414.17;395.47;;;10.80;99.90;;;;;;4406073;32;20170;-67
2021/10/04 06:47:43;;;;;;;432.70;412.97;;;10.70;99.90;;;;;;4405506;32;20178;-67
2021/10/04 06:50:10;;;;;;;393.17;376.07;;;10.70;99.90;;;;;;4405187;32;20171;-67
2021/10/04 06:52:43;;;;;;;412.77;393.27;;;10.70;99.90;;;;;;4406646;32;20562;-67
2021/10/04 06:55:12;;;;;;;405.37;387.27;;;10.70;99.90;;;;;;4403508;32;20480;-67
2021/10/04 06:57:46;;;;;;;430.30;411.13;;;10.60;99.90;;;;;;4405148;32;20185;-67
2021/10/04 07:00:20;;;;;;;405.33;387.60;;;10.70;99.90;;;;;;4404615;32;20237;-66
2021/10/04 07:02:50;;;;;;;424.03;405.00;;;10.70;99.90;;;;;;4405098;32;20172;-67
2021/10/04 07:05:19;;;;;;;416.77;398.40;;;10.70;99.90;;;;;;4403867;32;20171;-67
2021/10/04 07:07:46;;;;;;;419.23;400.17;;;10.70;99.90;;;;;;4406704;32;20245;-67
2021/10/04 07:10:13;;;;;;;410.70;392.53;;;10.70;99.90;;;;;;4404976;32;20746;-67
2021/10/04 07:12:41;;;;;;;408.43;389.83;;;10.70;99.90;;;;;;4404644;32;20178;-67
2021/10/04 07:15:10;;;;;;;403.67;385.63;;;10.80;99.90;;;;;;4402903;32;20565;-68
2021/10/04 07:17:39;;;;;;;412.03;394.07;;;10.80;99.90;;;;;;4404973;32;20148;-68
2021/10/04 07:20:07;;;;;;;435.30;415.67;;;10.90;99.90;;;;;;4404609;32;20222;-68
2021/10/04 07:22:34;;;;;;;426.40;407.77;;;10.90;99.90;;;;;;4404062;32;20495;-66
2021/10/04 07:25:01;;;;;;;416.03;397.93;;;11.00;99.90;;;;;;4404842;32;20152;-66
2021/10/04 07:27:30;;;;;;;425.40;406.63;;;11.10;99.90;;;;;;4404425;32;20607;-67
2021/10/04 07:30:07;;;;;;;432.73;413.53;;;11.20;99.90;;;;;;4405446;32;20170;-69
2021/10/04 07:32:34;;;;;;;408.73;390.53;;;11.30;99.90;;;;;;4404812;32;20555;-67
2021/10/04 07:35:01;;;;;;;439.27;419.63;;;11.40;99.90;;;;;;4404566;32;20170;-67
2021/10/04 07:37:37;;;;;;;433.07;413.50;;;11.50;99.90;;;;;;4404729;32;20140;-68
2021/10/04 07:40:11;;;;;;;414.40;395.50;;;11.60;99.90;;;;;;4403451;32;20617;-66
2021/10/04 07:42:38;;;;;;;408.33;390.07;;;11.70;99.90;;;;;;4403349;32;20163;-66
2021/10/04 07:45:08;;;;;;;409.83;391.90;;;11.80;99.90;;;;;;4404861;32;20611;-66
2021/10/04 07:47:36;;;;;;;373.53;357.50;;;11.80;99.90;;;;;;4404100;32;20152;-66
2021/10/04 07:50:09;;;;;;;427.03;408.13;;;11.90;99.90;;;;;;4404643;32;20242;-68
2021/10/04 07:52:36;;;;;;;388.70;371.57;;;12.00;99.90;;;;;;4403466;32;20139;-68
2021/10/04 07:55:05;;;;;;;377.73;361.50;;;12.00;99.90;;;;;;4337805;32;2122109;-66
2021/10/04 07:57:35;;;;;;;388.60;371.90;;;12.10;99.90;;;;;;4402879;32;20178;-67
2021/10/04 08:00:14;;;;;;;388.63;372.00;;;12.20;99.90;;;;;;4404692;32;20179;-67
2021/10/04 08:02:43;;;;;;;398.07;380.80;;;12.30;99.90;;;;;;4403427;32;20195;-67
2021/10/04 08:05:13;;;;;;;377.33;361.17;;;12.40;99.90;;;;;;4404632;32;20152;-67
2021/10/04 08:07:42;;;;;;;383.37;366.60;;;12.50;99.90;;;;;;4404641;32;20163;-70
2021/10/04 08:10:22;;;;;;;329.37;315.43;;;12.60;99.90;;;;;;4404705;32;20163;-68
2021/10/04 08:12:51;;;;;;;353.03;338.23;;;12.70;99.90;;;;;;4405871;32;20174;-65
2021/10/04 08:15:20;;;;;;;334.27;319.73;;;12.80;99.90;;;;;;4404540;32;20215;-66
2021/10/04 08:17:48;;;;;;;321.20;308.00;;;12.80;99.90;;;;;;4402843;32;20453;-66
2021/10/04 08:20:20;;;;;;;314.60;301.33;;;12.90;99.90;;;;;;4405052;32;20209;-66
2021/10/04 08:23:01;;;;;;;316.77;303.43;;;13.00;99.90;;;;;;4400904;32;20159;-66
2021/10/04 08:25:33;;;;;;;324.27;310.73;;;13.10;99.90;;;;;;4402771;32;20229;-66
2021/10/04 08:28:00;;;;;;;355.43;340.33;;;13.10;99.90;;;;;;4405642;32;20164;-67
2021/10/04 08:30:28;;;;;;;316.43;303.50;;;13.30;99.90;;;;;;4402922;32;20159;-67
2021/10/04 08:32:57;;;;;;;289.17;277.33;;;13.30;99.90;;;;;;4406691;32;20179;-66
2021/10/04 08:35:24;;;;;;;272.77;261.67;;;13.40;99.90;;;;;;4405593;32;20183;-66
2021/10/04 08:37:51;;;;;;;268.60;257.60;;;13.50;99.90;;;;;;4406585;32;20156;-65
2021/10/04 08:40:21;;;;;;;261.47;250.97;;;13.50;99.90;;;;;;4405209;32;20484;-65
2021/10/04 08:42:55;;;;;;;280.83;269.13;;;13.50;99.90;;;;;;4405080;32;20436;-66
2021/10/04 08:45:30;;;;;;;274.57;263.37;;;13.50;99.90;;;;;;4405181;32;20147;-68
2021/10/04 08:48:02;;;;;;;274.33;263.03;;;13.60;99.90;;;;;;4405304;32;20155;-65
2021/10/04 08:50:31;;;;;;;275.07;263.87;;;13.70;99.90;;;;;;4407118;32;20213;-66
2021/10/04 08:53:02;;;;;;;261.73;251.13;;;13.70;99.90;;;;;;4408214;32;20156;-67
2021/10/04 08:55:29;;;;;;;270.40;258.77;;;13.70;99.90;;;;;;4408196;32;20635;-67
2021/10/04 08:57:56;;;;;;;275.37;263.87;;;13.70;99.90;;;;;;4408247;32;20148;-66
2021/10/04 09:00:23;;;;;;;265.47;254.93;;;13.80;99.90;;;;;;4408069;32;20159;-65
2021/10/04 09:02:55;;;;;;;269.73;258.27;;;13.80;99.90;;;;;;4408061;32;20157;-65
2021/10/04 09:05:25;;;;;;;270.50;259.10;;;13.90;99.90;;;;;;4408146;32;20152;-65
2021/10/04 09:08:02;;;;;;;259.93;249.40;;;14.00;99.90;;;;;;4408687;32;20147;-65
2021/10/04 09:10:33;;;;;;;272.87;261.70;;;14.00;99.90;;;;;;4407981;32;20218;-67
2021/10/04 09:13:07;;;;;;;244.17;233.87;;;14.10;99.90;;;;;;4408602;32;20170;-65
2021/10/04 09:15:37;;;;;;;248.73;238.47;;;14.10;99.90;;;;;;4409052;32;20187;-66
2021/10/04 09:18:22;;;;;;;224.50;215.03;;;14.10;99.90;;;;;;4408863;32;20174;-66
2021/10/04 09:20:55;;;;;;;233.83;224.27;;;14.20;99.90;;;;;;4409221;32;20152;-66
2021/10/04 09:23:34;;;;;;;215.57;206.90;;;14.20;99.90;;;;;;4407622;32;20158;-66
2021/10/04 09:26:04;;;;;;;203.17;194.63;;;14.20;99.90;;;;;;4407783;32;20151;-65
2021/10/04 09:28:35;;;;;;;247.13;237.10;;;14.30;99.90;;;;;;4409516;32;20151;-67
2021/10/04 09:31:17;;;;;;;229.20;219.50;;;14.40;99.90;;;;;;4408935;32;20156;-67
2021/10/04 09:34:13;;;;;;;234.90;224.63;;;14.40;99.90;;;;;;4409084;32;20146;-67
2021/10/04 09:36:46;;;;;;;232.13;222.47;;;14.50;99.90;;;;;;4375505;32;20195;-65
2021/10/04 09:39:17;;;;;;;229.97;220.60;;;14.60;99.90;;;;;;4375253;32;20262;-66
2021/10/04 09:42:07;;;;;;;236.87;226.80;;;14.80;99.90;;;;;;4376297;32;20652;-68
2021/10/04 09:44:50;;;;;;;217.87;209.03;;;14.80;99.90;;;;;;4375495;32;20206;-67
2021/10/04 09:47:20;;;;;;;225.50;216.37;;;14.90;99.90;;;;;;4375370;32;20221;-66
2021/10/04 09:49:51;;;;;;;211.17;202.03;;;14.90;99.90;;;;;;4375062;32;20168;-66
2021/10/04 09:52:19;;;;;;;226.83;217.77;;;14.90;99.90;;;;;;4376181;32;20191;-65
2021/10/04 09:54:53;;;;;;;208.70;199.97;;;15.00;99.90;;;;;;4375238;32;20168;-65
2021/10/04 09:57:23;;;;;;;208.70;200.10;;;15.00;99.90;;;;;;4371519;32;20164;-66
2021/10/04 09:59:50;;;;;;;215.17;205.90;;;15.10;99.90;;;;;;4356597;32;20224;-67
2021/10/04 10:02:20;;;;;;;207.70;199.17;;;15.10;99.90;;;;;;4357866;32;20240;-67
2021/10/04 10:04:51;;;;;;;220.87;211.60;;;15.20;99.90;;;;;;4366510;32;20159;-66
2021/10/04 10:07:20;;;;;;;194.37;186.20;;;15.20;99.90;;;;;;4360043;33;20576;-66
2021/10/04 10:09:49;;;;;;;206.13;197.73;;;15.30;99.90;;;;;;4359955;33;21164;-66
2021/10/04 10:12:16;;;;;;;208.00;199.20;;;15.30;99.90;;;;;;4373160;32;20190;-64
2021/10/04 10:14:44;;;;;;;203.37;194.73;;;15.40;99.90;;;;;;4391936;32;20160;-67
2021/10/04 10:17:20;;;;;;;212.00;202.43;;;15.50;99.90;;;;;;4391945;32;20211;-66
2021/10/04 10:19:49;;;;;;;196.53;188.20;;;15.50;99.90;;;;;;4393655;32;20170;-66
2021/10/04 10:22:19;;;;;;;200.90;192.53;;;15.60;99.90;;;;;;4392146;32;20487;-65
2021/10/04 10:24:51;;;;;;;182.30;174.63;;;15.70;99.90;;;;;;4391532;32;20159;-66
2021/10/04 10:27:21;;;;;;;142.80;136.57;;;15.70;99.90;;;;;;4398236;32;20173;-66
2021/10/04 10:30:15;;;;;;;161.83;154.87;;;15.70;99.90;;;;;;4408304;32;20147;-66
2021/10/04 10:32:42;;;;;;;158.67;152.07;;;15.80;99.90;;;;;;4408163;32;20216;-67
2021/10/04 10:35:11;;;;;;;135.63;129.53;;;15.90;99.90;;;;;;4407537;32;20166;-68
2021/10/04 10:37:52;;;;;;;146.40;140.10;;;16.00;99.90;;;;;;4407364;32;20178;-66
2021/10/04 10:40:21;;;;;;;132.40;126.20;;;15.90;99.90;;;;;;4406863;32;20152;-67
2021/10/04 10:43:02;;;;;;;130.50;125.13;;;15.80;99.90;;;;;;4408685;32;20148;-63
2021/10/04 10:45:44;;;;;;;138.37;132.40;;;15.80;99.90;;;;;;4406654;32;20177;-65
2021/10/04 10:48:12;;;;;;;128.90;122.83;;;15.90;99.90;;;;;;4407476;32;20180;-67
2021/10/04 10:50:45;;;;;;;133.97;128.17;;;15.90;99.90;;;;;;4407226;32;20164;-66
2021/10/04 10:53:29;;;;;;;124.80;119.63;;;16.00;99.90;;;;;;4406799;32;20498;-63
2021/10/04 10:55:59;;;;;;;119.63;114.10;;;16.00;99.90;;;;;;4406669;32;20568;-63
2021/10/04 10:58:27;;;;;;;135.30;129.17;;;16.10;99.90;;;;;;4406751;32;20152;-66
2021/10/04 11:01:19;;;;;;;128.97;123.23;;;16.10;99.90;;;;;;4407798;32;20188;-64
2021/10/04 11:03:59;;;;;;;114.63;109.80;;;16.00;99.90;;;;;;4408056;32;20588;-64
2021/10/04 11:06:45;;;;;;;116.97;111.53;;;16.10;99.90;;;;;;4406502;32;20555;-65
2021/10/04 11:09:14;;;;;;;122.57;117.13;;;16.10;99.90;;;;;;4406309;32;20152;-66
2021/10/04 11:11:45;;;;;;;115.60;110.70;;;16.20;99.90;;;;;;4407862;32;20143;-64
2021/10/04 11:14:21;;;;;;;110.80;105.73;;;16.20;99.90;;;;;;4405674;32;20148;-65
2021/10/04 11:17:03;;;;;;;121.00;115.97;;;16.30;99.90;;;;;;4406373;32;20151;-66
2021/10/04 11:19:42;;;;;;;116.77;111.53;;;16.30;99.90;;;;;;4406205;32;20148;-65
2021/10/04 11:22:23;;;;;;;97.23;92.87;;;16.40;99.90;;;;;;4406877;32;20166;-64
2021/10/04 11:25:15;;;;;;;103.90;99.03;;;16.40;99.90;;;;;;4406083;32;20166;-65
2021/10/04 11:27:50;;;;;;;102.27;97.37;;;16.30;99.90;;;;;;4406127;32;20560;-64
2021/10/04 11:30:23;;;;;;;97.30;93.03;;;16.40;99.90;;;;;;4407184;32;20174;-65
2021/10/04 11:33:08;;;;;;;99.70;94.90;;;16.50;99.90;;;;;;4406145;32;20148;-65
2021/10/04 11:35:38;;;;;;;86.53;82.30;;;16.70;99.90;;;;;;4406638;32;20148;-63
2021/10/04 11:38:10;;;;;;;96.47;92.07;;;16.60;99.90;;;;;;4407737;32;20202;-64
2021/10/04 11:40:40;;;;;;;84.37;80.37;;;16.80;99.90;;;;;;4406025;32;20176;-65
2021/10/04 11:43:10;;;;;;;94.27;90.03;;;16.60;99.90;;;;;;4406386;32;20203;-66
2021/10/04 11:45:37;;;;;;;102.70;97.90;;;16.60;99.90;;;;;;4405960;32;20156;-66
2021/10/04 11:48:05;;;;;;;99.10;94.60;;;16.70;99.90;;;;;;4405925;32;20702;-65
2021/10/04 11:50:38;;;;;;;92.80;88.27;;;16.60;99.90;;;;;;4407135;32;20156;-67
2021/10/04 11:53:08;;;;;;;87.60;83.50;;;16.70;99.90;;;;;;4405642;32;20159;-66
2021/10/04 11:55:35;;;;;;;84.57;80.67;;;16.80;99.90;;;;;;4407646;32;20187;-65
2021/10/04 11:58:12;;;;;;;87.50;83.70;;;16.70;99.90;;;;;;4407528;32;20162;-66
2021/10/04 12:00:47;;;;;;;83.87;79.77;;;16.80;99.90;;;;;;4405814;32;20166;-66
2021/10/04 12:03:24;;;;;;;79.33;75.67;;;16.90;99.90;;;;;;4405703;32;20147;-65
2021/10/04 12:06:03;;;;;;;74.40;70.80;;;16.80;99.90;;;;;;4406098;32;20140;-64
2021/10/04 12:08:38;;;;;;;75.67;71.87;;;16.70;99.90;;;;;;4406518;32;20139;-66
2021/10/04 12:11:07;;;;;;;83.43;79.67;;;16.80;99.90;;;;;;4405257;32;20183;-66
2021/10/04 12:13:37;;;;;;;77.67;73.97;;;16.90;99.90;;;;;;4405482;32;20212;-65
2021/10/04 12:16:08;;;;;;;78.07;74.07;;;16.80;99.90;;;;;;4405554;32;20148;-65
2021/10/04 12:18:42;;;;;;;79.63;75.73;;;16.90;99.90;;;;;;4405621;32;20539;-66
2021/10/04 12:21:21;;;;;;;68.27;64.77;;;17.10;99.90;;;;;;4405563;32;20163;-65
2021/10/04 12:24:09;;;;;;;73.57;70.23;;;17.10;99.90;;;;;;4405654;32;20147;-64